Time;durP1;ratioP1;P1;durP2;ratioP2;P2;SDS_P1;SDS_P2;PMS_P1;PMS_P2;Temp;Humidity;BMP_temperature;BMP_pressure;BME280_temperature;BME280_humidity;BME280_pressure;Samples;Min_cycle;Max_cycle;Signal;HPM_P1;HPM_P2
2022/11/24 00:02:06;;;;;;;21.50;3.60;;;9.00;1.00;;;;;;4983896;28;20188;-84
2022/11/24 00:04:31;;;;;;;22.07;3.60;;;9.10;1.00;;;;;;4986764;28;20264;-84
2022/11/24 00:06:57;;;;;;;12.73;3.47;;;9.10;1.00;;;;;;4982990;28;20184;-83
2022/11/24 00:09:22;;;;;;;11.93;3.03;;;9.10;1.00;;;;;;4974512;28;20583;-83
2022/11/24 00:11:48;;;;;;;9.43;2.80;;;9.10;1.00;;;;;;4982848;28;20181;-84
2022/11/24 00:14:13;;;;;;;12.70;3.13;;;9.10;1.00;;;;;;4987343;28;20270;-84
2022/11/24 00:16:39;;;;;;;12.70;2.97;;;9.10;1.00;;;;;;4989074;28;20261;-84
2022/11/24 00:19:08;;;;;;;13.77;3.03;;;9.10;1.00;;;;;;4991085;28;20188;-83
2022/11/24 00:21:34;;;;;;;20.63;3.28;;;9.00;1.00;;;;;;4979000;28;20196;-82
2022/11/24 00:24:00;;;;;;;14.82;3.83;;;9.00;1.00;;;;;;4988719;28;20327;-83
2022/11/24 00:26:28;;;;;;;9.88;2.58;;;9.00;1.00;;;;;;4984133;28;21200;-82
2022/11/24 00:28:56;;;;;;;11.25;3.47;;;9.00;1.00;;;;;;4974294;28;20183;-82
2022/11/24 00:31:30;;;;;;;14.77;2.72;;;9.00;1.00;;;;;;4975762;28;20192;-83
2022/11/24 00:33:57;;;;;;;23.70;4.95;;;9.00;1.00;;;;;;4978499;28;20274;-81
2022/11/24 00:36:26;;;;;;;12.65;3.28;;;9.00;1.00;;;;;;4972314;28;20255;-82
2022/11/24 00:39:05;;;;;;;12.73;2.90;;;8.90;1.00;;;;;;4980805;28;20186;-81
2022/11/24 00:41:31;;;;;;;9.20;3.42;;;8.90;1.00;;;;;;4974335;28;20193;-82
2022/11/24 00:43:57;;;;;;;13.93;3.17;;;8.90;1.00;;;;;;4973578;28;20227;-82
2022/11/24 00:46:23;;;;;;;7.05;2.47;;;8.90;1.00;;;;;;4979890;28;20231;-82
2022/11/24 00:48:50;;;;;;;14.38;3.20;;;8.90;1.00;;;;;;4974322;28;20231;-82
2022/11/24 00:51:16;;;;;;;21.53;3.90;;;8.90;1.00;;;;;;4973536;28;20814;-81
2022/11/24 00:53:42;;;;;;;13.40;3.00;;;9.00;1.00;;;;;;4973170;28;20447;-82
2022/11/24 00:56:09;;;;;;;16.87;3.17;;;9.00;1.00;;;;;;4977054;28;20217;-82
2022/11/24 00:58:34;;;;;;;11.77;2.40;;;9.10;1.00;;;;;;4983293;28;20199;-83
2022/11/24 01:01:18;;;;;;;14.57;4.10;;;9.10;1.00;;;;;;4970448;28;20192;-83
2022/11/24 01:03:45;;;;;;;11.25;3.40;;;9.10;1.00;;;;;;4974797;28;20240;-82
2022/11/24 01:06:16;;;;;;;20.17;3.78;;;9.10;1.00;;;;;;4976682;28;20234;-83
2022/11/24 01:08:42;;;;;;;16.10;3.47;;;9.10;1.00;;;;;;4988840;28;20877;-82
2022/11/24 01:11:23;;;;;;;12.27;3.33;;;9.10;1.00;;;;;;4975824;28;20191;-82
2022/11/24 01:13:52;;;;;;;11.60;3.00;;;9.10;1.00;;;;;;4973314;28;20301;-82
2022/11/24 01:16:24;;;;;;;16.73;3.35;;;9.10;1.00;;;;;;4973133;28;20208;-82
2022/11/24 01:18:50;;;;;;;13.52;3.63;;;9.10;1.00;;;;;;4974564;28;20187;-82
2022/11/24 01:21:16;;;;;;;18.77;3.50;;;9.00;1.00;;;;;;4982830;28;20641;-82
2022/11/24 01:23:42;;;;;;;11.15;3.13;;;9.00;1.00;;;;;;4974250;28;20609;-83
2022/11/24 01:26:13;;;;;;;17.33;3.20;;;9.00;1.00;;;;;;4967662;28;20227;-82
2022/11/24 01:28:38;;;;;;;14.68;2.60;;;9.00;1.00;;;;;;4965072;28;20177;-82
2022/11/24 01:31:06;;;;;;;19.23;4.73;;;9.00;1.00;;;;;;4971475;28;20195;-83
2022/11/24 01:33:36;;;;;;;18.02;3.10;;;9.00;1.00;;;;;;4982171;28;20842;-82
2022/11/24 01:36:03;;;;;;;20.10;4.20;;;9.10;1.00;;;;;;4973831;28;20228;-82
2022/11/24 01:38:28;;;;;;;17.27;3.60;;;9.10;1.00;;;;;;4972819;28;20267;-82
2022/11/24 01:41:23;;;;;;;12.93;3.40;;;9.20;1.00;;;;;;4978912;28;20980;-83
2022/11/24 01:43:51;;;;;;;11.70;3.67;;;9.20;1.00;;;;;;4969241;28;20216;-83
2022/11/24 01:46:20;;;;;;;13.27;3.67;;;9.20;1.00;;;;;;4972668;28;20470;-82
2022/11/24 01:48:56;;;;;;;22.63;3.67;;;9.30;1.00;;;;;;4974814;28;20199;-82
2022/11/24 01:51:24;;;;;;;12.30;2.60;;;9.30;1.00;;;;;;4974645;28;20988;-81
2022/11/24 01:53:56;;;;;;;16.23;4.28;;;9.30;1.00;;;;;;4974058;28;20669;-82
2022/11/24 01:56:22;;;;;;;8.67;3.00;;;9.30;1.00;;;;;;4968295;28;20644;-83
2022/11/24 01:58:50;;;;;;;14.48;3.92;;;9.30;1.00;;;;;;4975873;28;20664;-82
2022/11/24 02:01:16;;;;;;;16.33;2.40;;;9.30;1.00;;;;;;4975860;28;20211;-83
2022/11/24 02:03:45;;;;;;;16.47;5.00;;;9.30;1.00;;;;;;4981405;28;20985;-82
2022/11/24 02:06:14;;;;;;;12.77;3.55;;;9.30;1.00;;;;;;4978741;28;20209;-84
2022/11/24 02:08:53;;;;;;;15.30;3.30;;;9.40;1.00;;;;;;4975214;28;20185;-84
2022/11/24 02:11:21;;;;;;;16.45;3.78;;;9.40;1.00;;;;;;4970547;28;20469;-83
2022/11/24 02:13:48;;;;;;;14.27;3.63;;;9.40;1.00;;;;;;4981670;28;20187;-82
2022/11/24 02:16:14;;;;;;;12.10;4.00;;;9.50;1.00;;;;;;4977009;28;20456;-83
2022/11/24 02:18:41;;;;;;;22.13;3.80;;;9.50;1.00;;;;;;4978938;28;20449;-83
2022/11/24 02:21:08;;;;;;;15.63;4.80;;;9.50;1.00;;;;;;4972969;28;20295;-83
2022/11/24 02:23:42;;;;;;;20.77;3.50;;;9.50;1.00;;;;;;4983537;28;20466;-84
2022/11/24 02:26:27;;;;;;;17.05;4.70;;;9.50;1.00;;;;;;4982844;28;20466;-84
2022/11/24 02:28:52;;;;;;;16.87;4.13;;;9.50;1.00;;;;;;4980638;28;20192;-83
2022/11/24 02:31:18;;;;;;;14.43;3.33;;;9.40;1.00;;;;;;4981657;28;20443;-84
2022/11/24 02:33:44;;;;;;;22.23;4.40;;;9.40;1.00;;;;;;4978963;28;20572;-84
2022/11/24 02:36:09;;;;;;;17.50;3.70;;;9.40;1.00;;;;;;4979529;28;20219;-84
2022/11/24 02:38:35;;;;;;;17.47;3.50;;;9.40;1.00;;;;;;4990221;28;20435;-84
2022/11/24 02:41:10;;;;;;;14.23;3.53;;;9.40;1.00;;;;;;4979368;28;20231;-82
2022/11/24 02:43:42;;;;;;;22.20;4.50;;;9.40;1.00;;;;;;4981991;28;20207;-83
2022/11/24 02:46:09;;;;;;;26.30;4.70;;;9.40;1.00;;;;;;4982557;28;21091;-83
2022/11/24 02:48:35;;;;;;;21.67;4.73;;;9.40;1.00;;;;;;4985800;28;20176;-84
2022/11/24 02:51:01;;;;;;;17.13;3.73;;;9.40;1.00;;;;;;4981225;28;20530;-81
2022/11/24 02:53:26;;;;;;;16.40;3.60;;;9.40;1.00;;;;;;4982652;28;20889;-83
2022/11/24 02:55:52;;;;;;;18.70;4.30;;;9.40;1.00;;;;;;4981328;28;20273;-82
2022/11/24 02:58:17;;;;;;;20.27;4.50;;;9.40;1.00;;;;;;4991255;28;20188;-83
2022/11/24 03:00:43;;;;;;;13.07;3.90;;;9.30;1.00;;;;;;4982525;28;20259;-84
2022/11/24 03:03:09;;;;;;;26.00;4.13;;;9.30;1.00;;;;;;4984859;28;20588;-83
2022/11/24 03:05:34;;;;;;;17.30;3.53;;;9.30;1.00;;;;;;4983620;28;20215;-82
2022/11/24 03:08:00;;;;;;;12.23;3.40;;;9.30;1.00;;;;;;4982148;28;20640;-83
2022/11/24 03:10:25;;;;;;;19.33;4.00;;;9.30;1.00;;;;;;4988256;28;20188;-83
2022/11/24 03:12:51;;;;;;;13.17;3.40;;;9.30;1.00;;;;;;4985395;28;20703;-84
2022/11/24 03:15:16;;;;;;;22.57;3.40;;;9.30;1.00;;;;;;4979914;28;20318;-81
2022/11/24 03:17:42;;;;;;;23.27;4.03;;;9.30;1.00;;;;;;4979416;28;20203;-83
2022/11/24 03:20:08;;;;;;;13.57;3.67;;;9.30;1.00;;;;;;4990169;28;20188;-84
2022/11/24 03:22:35;;;;;;;19.50;4.00;;;9.30;1.00;;;;;;4978289;28;20614;-84
2022/11/24 03:25:00;;;;;;;17.10;4.30;;;9.30;1.00;;;;;;4981596;28;20570;-82
2022/11/24 03:27:26;;;;;;;19.50;3.60;;;9.40;1.00;;;;;;4979007;28;20501;-84
2022/11/24 03:29:51;;;;;;;16.33;4.10;;;9.40;1.00;;;;;;4978665;28;20184;-83
2022/11/24 03:32:17;;;;;;;25.87;4.33;;;9.40;1.00;;;;;;4986382;28;20188;-82
2022/11/24 03:34:42;;;;;;;24.80;3.57;;;9.40;1.00;;;;;;4985289;28;20226;-82
2022/11/24 03:37:08;;;;;;;24.80;4.23;;;9.50;1.00;;;;;;4984968;28;20188;-83
2022/11/24 03:39:33;;;;;;;44.47;5.23;;;9.50;1.00;;;;;;4975594;28;20279;-84
2022/11/24 03:41:59;;;;;;;19.53;3.70;;;9.50;1.00;;;;;;4971726;28;20264;-82
2022/11/24 03:44:24;;;;;;;15.13;4.23;;;9.50;1.00;;;;;;4983086;28;20242;-84
2022/11/24 03:46:50;;;;;;;10.63;3.00;;;9.50;1.00;;;;;;4986794;28;20184;-84
2022/11/24 03:49:16;;;;;;;19.03;4.13;;;9.60;1.00;;;;;;4983625;28;20184;-83
2022/11/24 03:51:42;;;;;;;21.83;4.10;;;9.60;1.00;;;;;;4979696;28;20443;-83
2022/11/24 03:54:07;;;;;;;17.27;3.80;;;9.60;1.00;;;;;;4983869;28;20204;-83
2022/11/24 03:56:33;;;;;;;17.57;4.17;;;9.60;1.00;;;;;;4987344;28;20203;-83
2022/11/24 03:58:58;;;;;;;18.30;4.63;;;9.60;1.00;;;;;;4976323;28;20255;-82
2022/11/24 04:01:24;;;;;;;21.77;4.17;;;9.60;1.00;;;;;;4975011;28;20271;-81
2022/11/24 04:03:49;;;;;;;27.23;4.63;;;9.60;99.90;;;;;;4972377;28;20222;-81
2022/11/24 04:06:15;;;;;;;30.23;5.37;;;9.50;99.90;;;;;;4981258;28;20760;-82
2022/11/24 04:08:40;;;;;;;15.50;4.43;;;9.50;99.90;;;;;;4983237;28;20180;-81
2022/11/24 04:11:06;;;;;;;20.30;4.37;;;9.50;99.90;;;;;;4972975;28;20184;-82
2022/11/24 04:13:31;;;;;;;18.53;4.50;;;9.50;99.90;;;;;;4974776;28;20188;-82
2022/11/24 04:15:57;;;;;;;22.90;3.77;;;9.60;99.90;;;;;;4981341;28;20386;-81
2022/11/24 04:18:22;;;;;;;21.17;4.40;;;9.60;99.90;;;;;;4976398;28;20196;-82
2022/11/24 04:20:51;;;;;;;18.27;3.87;;;9.60;99.90;;;;;;4976805;28;23888;-82
2022/11/24 04:23:18;;;;;;;15.23;3.90;;;9.60;99.90;;;;;;4977489;28;20211;-82
2022/11/24 04:25:43;;;;;;;16.97;4.50;;;9.70;99.90;;;;;;4980702;28;20991;-82
2022/11/24 04:28:09;;;;;;;20.40;4.30;;;9.60;99.90;;;;;;4978049;28;20464;-82
2022/11/24 04:30:37;;;;;;;22.10;4.50;;;9.70;99.90;;;;;;4977917;28;20200;-82
2022/11/24 04:33:02;;;;;;;15.17;4.03;;;9.70;99.90;;;;;;4981206;28;20187;-83
2022/11/24 04:35:28;;;;;;;17.40;4.73;;;9.70;99.90;;;;;;4974734;28;20459;-82
2022/11/24 04:37:53;;;;;;;17.63;3.80;;;9.70;99.90;;;;;;4978543;28;20183;-81
2022/11/24 04:40:19;;;;;;;17.30;4.90;;;9.80;99.90;;;;;;4979965;28;20215;-82
2022/11/24 04:42:53;;;;;;;16.80;4.90;;;9.80;99.90;;;;;;4976146;28;20222;-81
2022/11/24 04:45:18;;;;;;;22.60;4.90;;;9.80;99.90;;;;;;4974222;28;20426;-82
2022/11/24 04:47:44;;;;;;;18.93;5.50;;;9.80;99.90;;;;;;4972740;28;20443;-80
2022/11/24 04:50:09;;;;;;;25.03;4.77;;;9.80;99.90;;;;;;4978579;28;20220;-82
2022/11/24 04:52:35;;;;;;;22.67;4.37;;;9.90;99.90;;;;;;4974312;28;20180;-82
2022/11/24 04:55:00;;;;;;;25.57;4.77;;;9.90;99.90;;;;;;4977060;28;20235;-82
2022/11/24 04:57:26;;;;;;;15.20;4.40;;;9.80;99.90;;;;;;4973542;28;20184;-84
2022/11/24 04:59:53;;;;;;;21.17;3.87;;;9.80;99.90;;;;;;4979502;28;20184;-81
2022/11/24 05:02:19;;;;;;;18.27;4.03;;;9.80;99.90;;;;;;4972923;28;20190;-83
2022/11/24 05:04:44;;;;;;;23.37;5.07;;;9.70;99.90;;;;;;4981189;28;20617;-82
2022/11/24 05:07:11;;;;;;;27.63;5.60;;;9.70;99.90;;;;;;4975928;28;20534;-82
2022/11/24 05:10:33;;;;;;;18.20;4.10;;;9.60;99.90;;;;;;4973323;28;20677;-83
2022/11/24 05:12:23;;;;;;;19.43;4.27;;;9.60;99.90;;;;;;4963213;28;20436;-83
2022/11/24 05:14:49;;;;;;;26.33;4.57;;;9.60;99.90;;;;;;4981251;28;20539;-83
2022/11/24 05:17:14;;;;;;;23.90;6.00;;;9.60;99.90;;;;;;4976047;28;20874;-82
2022/11/24 05:19:40;;;;;;;14.60;3.33;;;9.50;99.90;;;;;;4975537;28;20439;-83
2022/11/24 05:22:05;;;;;;;19.93;5.63;;;9.50;99.90;;;;;;4973984;28;20462;-83
2022/11/24 05:24:31;;;;;;;11.00;3.00;;;9.50;99.90;;;;;;4985734;28;20204;-83
2022/11/24 05:26:56;;;;;;;22.17;3.70;;;9.50;99.90;;;;;;4978643;28;20200;-84
2022/11/24 05:29:22;;;;;;;21.20;4.93;;;9.50;99.90;;;;;;4978863;28;20237;-83
2022/11/24 05:31:47;;;;;;;13.13;3.73;;;9.50;99.90;;;;;;4977838;28;20176;-82
2022/11/24 05:34:13;;;;;;;22.97;4.27;;;9.60;99.90;;;;;;4978819;28;20203;-83
2022/11/24 05:36:54;;;;;;;17.93;3.40;;;9.60;99.90;;;;;;4979753;28;20191;-82
2022/11/24 05:39:20;;;;;;;15.93;3.73;;;9.60;99.90;;;;;;4979469;28;20188;-83
2022/11/24 05:41:46;;;;;;;18.13;3.53;;;9.60;99.90;;;;;;4976498;28;20439;-82
2022/11/24 05:44:11;;;;;;;13.20;3.77;;;9.50;99.90;;;;;;4974893;28;20551;-83
2022/11/24 05:46:37;;;;;;;14.40;3.07;;;9.50;99.90;;;;;;4975413;28;20190;-82
2022/11/24 05:49:03;;;;;;;15.60;3.20;;;9.50;99.90;;;;;;4980498;28;20195;-83
2022/11/24 05:51:29;;;;;;;14.47;3.37;;;9.50;99.90;;;;;;4979924;28;20199;-83
2022/11/24 05:53:54;;;;;;;10.77;2.93;;;9.50;99.90;;;;;;4975646;28;20188;-83
2022/11/24 05:56:20;;;;;;;8.37;2.97;;;9.50;99.90;;;;;;4977349;28;20468;-83
2022/11/24 05:58:45;;;;;;;16.07;3.50;;;9.50;99.90;;;;;;4980685;28;20200;-82
2022/11/24 06:01:11;;;;;;;6.63;2.60;;;9.50;99.90;;;;;;4979158;28;20195;-82
2022/11/24 06:03:36;;;;;;;9.10;2.20;;;9.40;99.90;;;;;;4981525;28;20704;-83
2022/11/24 06:06:02;;;;;;;8.40;3.13;;;9.40;99.90;;;;;;4979874;28;20215;-82
2022/11/24 06:08:28;;;;;;;11.83;1.90;;;9.40;99.90;;;;;;4984149;28;20191;-83
2022/11/24 06:10:53;;;;;;;11.30;2.30;;;9.30;45.20;;;;;;4986323;28;20265;-82
2022/11/24 06:13:19;;;;;;;6.17;2.20;;;9.30;1.00;;;;;;4981707;28;20565;-82
2022/11/24 06:15:44;;;;;;;5.50;1.90;;;9.20;1.00;;;;;;4986995;28;20705;-83
2022/11/24 06:18:10;;;;;;;7.40;1.73;;;9.20;1.00;;;;;;4976371;28;20270;-83
2022/11/24 06:20:35;;;;;;;7.50;1.60;;;9.20;1.00;;;;;;4980928;28;20176;-82
2022/11/24 06:23:01;;;;;;;3.63;1.00;;;9.10;99.90;;;;;;4981462;28;20756;-83
2022/11/24 06:25:27;;;;;;;3.50;1.40;;;9.10;1.00;;;;;;4975317;28;20756;-82
2022/11/24 06:27:52;;;;;;;6.53;1.83;;;9.10;99.90;;;;;;4980389;28;20296;-81
2022/11/24 06:30:18;;;;;;;3.80;1.03;;;9.10;99.90;;;;;;4978732;28;20248;-82
2022/11/24 06:32:45;;;;;;;8.90;1.30;;;9.10;99.90;;;;;;4979969;28;20190;-82
2022/11/24 06:35:13;;;;;;;3.85;1.00;;;9.10;99.90;;;;;;4979278;28;20701;-81
2022/11/24 06:37:39;;;;;;;8.90;1.63;;;9.10;99.90;;;;;;4979780;28;20189;-82
2022/11/24 06:40:07;;;;;;;2.67;1.33;;;9.00;99.90;;;;;;4977433;28;20188;-82
2022/11/24 06:42:33;;;;;;;4.33;1.33;;;9.00;99.90;;;;;;4975362;28;20188;-82
2022/11/24 06:44:59;;;;;;;6.88;1.55;;;8.90;99.90;;;;;;4977391;28;21075;-83
2022/11/24 06:47:24;;;;;;;5.23;1.10;;;8.90;99.90;;;;;;4977519;28;20192;-84
2022/11/24 06:49:50;;;;;;;4.80;1.10;;;8.80;99.90;;;;;;4979457;28;20216;-82
2022/11/24 06:52:15;;;;;;;5.93;1.13;;;8.80;99.90;;;;;;4969164;28;20235;-82
2022/11/24 06:54:42;;;;;;;5.67;1.23;;;8.70;1.00;;;;;;4978117;28;20212;-84
2022/11/24 06:57:07;;;;;;;9.00;4.10;;;8.70;1.00;;;;;;4972013;28;20201;-83
2022/11/24 06:59:33;;;;;;;5.83;3.23;;;8.70;1.00;;;;;;4986216;28;20463;-83
2022/11/24 07:01:58;;;;;;;10.03;2.03;;;8.60;1.00;;;;;;4972652;28;20208;-84
2022/11/24 07:04:24;;;;;;;8.10;1.37;;;8.60;1.00;;;;;;4979621;28;20220;-79
2022/11/24 07:06:49;;;;;;;9.07;2.23;;;8.70;48.00;;;;;;4980017;28;20195;-82
2022/11/24 07:09:15;;;;;;;6.10;1.20;;;8.80;77.90;;;;;;4977052;28;20238;-81
2022/11/24 07:11:41;;;;;;;7.90;1.33;;;8.90;39.10;;;;;;4985548;28;20850;-82
2022/11/24 07:14:07;;;;;;;3.53;1.73;;;8.90;1.00;;;;;;4971799;28;20216;-83
2022/11/24 07:16:33;;;;;;;5.50;1.77;;;9.00;1.00;;;;;;4974486;28;20310;-83
2022/11/24 07:18:58;;;;;;;3.17;1.43;;;9.10;1.00;;;;;;4982398;28;20470;-83
2022/11/24 07:21:25;;;;;;;4.30;2.50;;;9.10;1.00;;;;;;4983490;28;20446;-83
2022/11/24 07:23:53;;;;;;;6.47;1.60;;;9.10;1.00;;;;;;4980269;28;20208;-83
2022/11/24 07:26:19;;;;;;;4.33;1.50;;;9.20;99.90;;;;;;4976181;28;20348;-83
2022/11/24 07:28:45;;;;;;;4.03;2.10;;;9.20;99.90;;;;;;4982341;28;20476;-83
2022/11/24 07:31:23;;;;;;;6.33;1.50;;;9.20;99.90;;;;;;4983424;28;20499;-81
2022/11/24 07:33:51;;;;;;;4.77;1.63;;;9.30;99.90;;;;;;4983339;28;20227;-83
2022/11/24 07:36:17;;;;;;;6.32;1.77;;;9.30;99.90;;;;;;4976614;28;20550;-81
2022/11/24 07:38:43;;;;;;;13.70;2.13;;;9.30;99.90;;;;;;4980104;28;20804;-80
2022/11/24 07:41:11;;;;;;;10.50;1.80;;;9.30;99.90;;;;;;4972973;28;20459;-81
2022/11/24 07:43:37;;;;;;;3.60;1.60;;;9.30;99.90;;;;;;4970715;28;20272;-81
2022/11/24 07:46:05;;;;;;;9.93;2.60;;;9.40;99.90;;;;;;4974619;28;20486;-81
2022/11/24 07:48:31;;;;;;;6.70;1.50;;;9.50;99.90;;;;;;4970229;28;20432;-82
2022/11/24 07:51:01;;;;;;;5.03;2.10;;;9.60;99.90;;;;;;4973485;28;20444;-82
2022/11/24 07:53:27;;;;;;;5.53;2.60;;;9.70;99.90;;;;;;4973495;28;20578;-83
2022/11/24 07:55:54;;;;;;;13.50;2.30;;;9.80;91.30;;;;;;4972930;28;20494;-82
2022/11/24 07:58:20;;;;;;;9.47;2.03;;;9.80;99.90;;;;;;4972241;28;20437;-82
2022/11/24 08:00:45;;;;;;;8.33;2.60;;;9.80;82.90;;;;;;4974604;28;20434;-81
2022/11/24 08:03:11;;;;;;;8.37;2.40;;;9.80;99.90;;;;;;4974902;28;20463;-81
2022/11/24 08:05:36;;;;;;;6.30;2.27;;;9.80;99.90;;;;;;4974331;28;20203;-81
2022/11/24 08:08:02;;;;;;;12.00;2.10;;;9.80;99.90;;;;;;4968712;28;20177;-82
2022/11/24 08:10:28;;;;;;;9.77;3.10;;;9.90;99.90;;;;;;4973025;28;20216;-82
2022/11/24 08:12:53;;;;;;;9.83;1.97;;;9.90;99.90;;;;;;4978709;28;20223;-82
2022/11/24 08:15:19;;;;;;;16.50;2.60;;;10.00;99.90;;;;;;4976642;28;20329;-81
2022/11/24 08:17:44;;;;;;;8.63;2.50;;;10.10;39.30;;;;;;4973142;28;20184;-82
2022/11/24 08:20:10;;;;;;;6.90;1.80;;;10.30;1.00;;;;;;4974464;28;20192;-82
2022/11/24 08:22:35;;;;;;;8.70;2.43;;;10.40;99.90;;;;;;4972081;28;20193;-82
2022/11/24 08:25:01;;;;;;;6.60;2.30;;;10.50;1.00;;;;;;5001697;23;20265;-79
2022/11/24 08:27:26;;;;;;;9.67;2.20;;;10.70;99.90;;;;;;4970217;28;20184;-82
2022/11/24 08:29:52;;;;;;;12.00;2.70;;;10.90;99.90;;;;;;4955475;28;20211;-83
2022/11/24 08:32:17;;;;;;;11.43;2.60;;;11.10;1.00;;;;;;4985943;28;20187;-80
2022/11/24 08:34:43;;;;;;;7.17;1.97;;;11.00;99.90;;;;;;4982333;28;20581;-82
2022/11/24 08:37:08;;;;;;;13.50;2.77;;;11.00;99.90;;;;;;4975573;28;20294;-81
2022/11/24 08:39:34;;;;;;;14.73;3.03;;;11.10;1.00;;;;;;4966038;28;20254;-83
2022/11/24 08:42:00;;;;;;;7.67;2.83;;;11.40;1.00;;;;;;4970729;28;20698;-81
2022/11/24 08:44:27;;;;;;;9.97;2.20;;;11.40;34.80;;;;;;4979291;28;20463;-82
2022/11/24 08:46:54;;;;;;;13.00;2.10;;;11.30;1.00;;;;;;4979089;28;20206;-82
2022/11/24 08:49:21;;;;;;;9.60;2.40;;;11.30;10.90;;;;;;4975124;28;20441;-82
2022/11/24 08:51:47;;;;;;;6.93;1.80;;;11.40;1.00;;;;;;4972872;28;20439;-80
2022/11/24 08:54:14;;;;;;;9.67;2.60;;;11.60;1.00;;;;;;4978314;28;20432;-81
2022/11/24 08:56:40;;;;;;;6.90;2.33;;;11.80;1.00;;;;;;4969356;28;20439;-83
2022/11/24 08:59:05;;;;;;;5.80;3.07;;;12.60;99.90;;;;;;4978104;28;20459;-82
2022/11/24 09:01:31;;;;;;;13.50;2.70;;;13.40;1.00;;;;;;4975515;28;20193;-83
2022/11/24 09:03:57;;;;;;;11.03;2.43;;;13.60;99.90;;;;;;4979099;28;20220;-81
2022/11/24 09:06:26;;;;;;;5.80;1.97;;;13.60;1.00;;;;;;4978511;28;20495;-82
2022/11/24 09:08:54;;;;;;;6.13;2.30;;;13.40;1.00;;;;;;4980997;28;20849;-81
2022/11/24 09:11:21;;;;;;;7.67;2.40;;;13.40;1.00;;;;;;4973652;28;20548;-83
2022/11/24 09:13:46;;;;;;;8.93;2.47;;;13.40;1.00;;;;;;4970650;28;20829;-81
2022/11/24 09:16:20;;;;;;;14.73;2.77;;;13.40;1.00;;;;;;4970760;28;20449;-81
2022/11/24 09:18:47;;;;;;;13.63;2.33;;;13.40;1.00;;;;;;4976724;28;20198;-83
2022/11/24 09:21:13;;;;;;;6.37;2.10;;;13.40;1.00;;;;;;4975135;28;20438;-82
2022/11/24 09:23:40;;;;;;;8.30;2.47;;;13.40;1.00;;;;;;4973683;28;20475;-81
2022/11/24 09:26:14;;;;;;;9.90;2.63;;;13.30;1.00;;;;;;4968614;28;20487;-82
2022/11/24 09:28:40;;;;;;;13.93;2.93;;;13.30;1.00;;;;;;4980828;28;20470;-81
2022/11/24 09:31:08;;;;;;;7.13;1.90;;;13.30;1.00;;;;;;4976444;28;20471;-82
2022/11/24 09:33:35;;;;;;;10.03;2.23;;;13.10;1.00;;;;;;4968533;28;20508;-80
2022/11/24 09:36:01;;;;;;;7.90;3.60;;;13.10;1.00;;;;;;4971706;28;20894;-81
2022/11/24 09:38:27;;;;;;;9.07;1.87;;;13.00;1.00;;;;;;4979788;28;20451;-81
2022/11/24 09:40:54;;;;;;;8.97;2.00;;;13.00;1.00;;;;;;4985673;28;20961;-82
2022/11/24 09:43:29;;;;;;;5.23;1.80;;;12.90;1.00;;;;;;4967516;28;20211;-82
2022/11/24 09:46:10;;;;;;;8.00;2.40;;;12.90;1.00;;;;;;4980497;28;20507;-82
2022/11/24 09:48:40;;;;;;;5.40;1.77;;;12.90;1.00;;;;;;4969426;28;20448;-83
2022/11/24 09:51:10;;;;;;;7.20;2.77;;;12.80;1.00;;;;;;4981418;28;20446;-79
2022/11/24 09:53:38;;;;;;;7.93;1.90;;;12.80;1.00;;;;;;4975194;28;20465;-82
2022/11/24 09:56:25;;;;;;;7.37;2.20;;;12.80;1.00;;;;;;4982675;28;20964;-80
2022/11/24 09:58:56;;;;;;;9.20;2.60;;;12.80;1.00;;;;;;4981057;28;20442;-81
2022/11/24 10:01:33;;;;;;;15.27;2.10;;;12.80;1.00;;;;;;4981391;28;20529;-81
2022/11/24 10:04:03;;;;;;;15.47;3.13;;;12.80;1.00;;;;;;4982097;28;20478;-80
2022/11/24 10:06:33;;;;;;;13.93;2.60;;;12.90;1.00;;;;;;4977076;28;20455;-82
2022/11/24 10:09:29;;;;;;;10.73;2.50;;;12.90;1.00;;;;;;4989882;28;20448;-83
2022/11/24 10:12:21;;;;;;;15.60;4.20;;;12.90;1.00;;;;;;4968380;28;20440;-81
2022/11/24 10:15:10;;;;;;;7.27;2.30;;;12.90;1.00;;;;;;4974260;28;20462;-81
2022/11/24 10:17:57;;;;;;;10.60;2.03;;;12.90;1.00;;;;;;4984301;28;20439;-82
2022/11/24 10:20:54;;;;;;;6.57;2.47;;;12.90;1.00;;;;;;4986246;28;20975;-81
2022/11/24 10:23:26;;;;;;;9.97;2.50;;;13.00;10.60;;;;;;4968741;28;20479;-81
2022/11/24 10:25:59;;;;;;;11.77;2.53;;;13.00;1.00;;;;;;4989283;28;20550;-81
2022/11/24 10:28:43;;;;;;;10.40;3.30;;;12.90;1.00;;;;;;4977965;28;20442;-81
2022/11/24 10:31:16;;;;;;;12.43;2.27;;;12.90;1.00;;;;;;4972750;28;20467;-81
2022/11/24 10:33:42;;;;;;;10.80;2.80;;;12.90;1.00;;;;;;4969635;28;21000;-81
2022/11/24 10:36:17;;;;;;;8.57;2.23;;;12.90;1.00;;;;;;4975653;28;20459;-81
2022/11/24 10:38:52;;;;;;;6.93;1.87;;;12.80;1.00;;;;;;4974559;28;20438;-83
2022/11/24 10:41:25;;;;;;;9.00;2.63;;;12.90;1.00;;;;;;4979299;28;20448;-83
2022/11/24 10:43:51;;;;;;;9.70;2.50;;;12.90;1.00;;;;;;4981003;28;20467;-81
2022/11/24 10:46:26;;;;;;;6.63;1.90;;;12.90;1.00;;;;;;4976164;28;20463;-82
2022/11/24 10:48:59;;;;;;;9.70;2.70;;;12.90;1.00;;;;;;4973140;28;20453;-82
2022/11/24 10:51:34;;;;;;;11.23;2.50;;;13.00;1.00;;;;;;4980280;28;20452;-81
2022/11/24 10:54:05;;;;;;;6.43;2.10;;;13.10;1.00;;;;;;4968773;28;20942;-82
2022/11/24 10:56:39;;;;;;;10.63;2.53;;;13.20;1.00;;;;;;4970347;28;20989;-82
2022/11/24 10:59:23;;;;;;;9.47;2.43;;;13.20;1.00;;;;;;4976874;28;20443;-82
2022/11/24 11:01:51;;;;;;;7.83;2.40;;;13.30;1.00;;;;;;4971713;28;20467;-82
2022/11/24 11:04:24;;;;;;;17.27;2.87;;;13.50;1.00;;;;;;4980757;28;20594;-82
2022/11/24 11:06:49;;;;;;;9.47;2.20;;;14.10;1.00;;;;;;4976624;28;20444;-82
2022/11/24 11:09:18;;;;;;;12.37;2.97;;;15.10;1.00;;;;;;4976348;28;21013;-82
2022/11/24 11:11:47;;;;;;;10.13;2.80;;;16.30;1.00;;;;;;4968832;28;20184;-82
2022/11/24 11:14:28;;;;;;;11.77;2.80;;;17.40;99.90;;;;;;4974842;28;20937;-82
2022/11/24 11:16:56;;;;;;;9.77;2.57;;;18.60;99.90;;;;;;4977877;28;20476;-82
2022/11/24 11:19:36;;;;;;;9.73;3.10;;;19.40;99.90;;;;;;4979283;28;20475;-82
2022/11/24 11:22:10;;;;;;;6.80;2.33;;;20.20;99.90;;;;;;4974113;28;20450;-81
2022/11/24 11:24:43;;;;;;;12.00;3.00;;;20.70;99.90;;;;;;4973889;28;20480;-82
2022/11/24 11:27:18;;;;;;;10.90;2.13;;;21.00;99.90;;;;;;4970210;28;20506;-82
2022/11/24 11:29:44;;;;;;;6.37;2.03;;;21.60;99.90;;;;;;4977336;28;20920;-82
2022/11/24 11:32:26;;;;;;;8.90;2.97;;;21.90;99.90;;;;;;4967282;28;20489;-83
2022/11/24 11:34:55;;;;;;;8.73;2.50;;;22.30;99.90;;;;;;4972887;28;21907;-83
2022/11/24 11:37:25;;;;;;;6.77;2.23;;;22.70;99.90;;;;;;4977085;28;20543;-85
2022/11/24 11:39:53;;;;;;;7.40;2.80;;;22.90;99.90;;;;;;4976501;28;20468;-83
2022/11/24 11:42:32;;;;;;;9.47;2.20;;;23.10;99.90;;;;;;4972029;28;20432;-84
2022/11/24 11:45:09;;;;;;;13.20;3.20;;;23.20;99.90;;;;;;4979846;28;20608;-83
2022/11/24 11:47:40;;;;;;;10.13;3.90;;;23.10;99.90;;;;;;4970243;28;20431;-83
2022/11/24 11:50:13;;;;;;;9.80;2.87;;;23.20;99.90;;;;;;4969056;28;20430;-84
2022/11/24 11:53:24;;;;;;;8.63;2.80;;;23.40;99.90;;;;;;4971826;28;20447;-83
2022/11/24 11:56:13;;;;;;;9.93;3.10;;;23.50;99.90;;;;;;4938908;28;20458;-83
2022/11/24 11:58:53;;;;;;;10.27;2.30;;;23.50;99.90;;;;;;4972935;28;20436;-83
2022/11/24 12:01:25;;;;;;;7.70;2.23;;;23.60;99.90;;;;;;4971284;28;20518;-83
2022/11/24 12:03:56;;;;;;;5.73;1.90;;;23.80;99.90;;;;;;4973180;28;20468;-83
2022/11/24 12:06:51;;;;;;;9.53;2.57;;;24.00;99.90;;;;;;4984493;28;21016;-82
2022/11/24 12:09:55;;;;;;;10.13;3.27;;;24.20;99.90;;;;;;4977447;28;20486;-83
2022/11/24 12:12:23;;;;;;;7.60;2.53;;;24.40;99.90;;;;;;4957602;28;20432;-83
2022/11/24 12:15:26;;;;;;;11.80;3.33;;;24.30;99.90;;;;;;4963842;28;20464;-82
2022/11/24 12:18:06;;;;;;;10.60;2.80;;;24.30;99.90;;;;;;4975309;28;20435;-83
2022/11/24 12:20:55;;;;;;;9.33;2.90;;;24.30;99.90;;;;;;4965909;28;20447;-84
2022/11/24 12:23:41;;;;;;;5.50;2.70;;;24.30;99.90;;;;;;4969662;28;20475;-84
2022/11/24 12:26:20;;;;;;;7.97;2.73;;;24.50;99.90;;;;;;4972119;28;20566;-84
2022/11/24 12:28:54;;;;;;;9.37;3.20;;;24.50;99.90;;;;;;4975066;28;20493;-83
2022/11/24 12:31:34;;;;;;;9.50;2.20;;;24.50;99.90;;;;;;4969135;28;20439;-82
2022/11/24 12:34:08;;;;;;;9.40;3.20;;;24.30;99.90;;;;;;4973512;28;20461;-80
2022/11/24 12:37:11;;;;;;;9.50;2.50;;;24.10;99.90;;;;;;4972875;28;20538;-83
2022/11/24 12:40:10;;;;;;;10.57;2.70;;;24.00;99.90;;;;;;4948432;28;20458;-84
2022/11/24 12:43:04;;;;;;;10.30;3.00;;;24.10;99.90;;;;;;4968300;28;20447;-84
2022/11/24 12:45:33;;;;;;;12.20;3.23;;;24.10;99.90;;;;;;4973841;28;20460;-83
2022/11/24 12:48:15;;;;;;;11.10;2.67;;;24.00;99.90;;;;;;4979496;28;20449;-82
2022/11/24 12:50:44;;;;;;;11.03;2.30;;;23.90;99.90;;;;;;4976452;28;20458;-81
2022/11/24 12:53:22;;;;;;;7.83;2.57;;;23.80;99.90;;;;;;4983382;28;20980;-82
2022/11/24 12:55:48;;;;;;;8.77;2.67;;;23.50;99.90;;;;;;4971596;28;20459;-82
2022/11/24 12:58:39;;;;;;;15.33;3.23;;;23.40;99.90;;;;;;4972052;28;21048;-82
2022/11/24 13:01:23;;;;;;;6.60;2.57;;;23.20;99.90;;;;;;4969526;28;20207;-82
2022/11/24 13:03:51;;;;;;;10.53;3.00;;;23.10;99.90;;;;;;4971800;28;20467;-83
2022/11/24 13:06:34;;;;;;;10.03;2.60;;;23.00;99.90;;;;;;4976833;28;20563;-83